sensor_id;sensor_type;location;lat;lon;timestamp;pressure;altitude;pressure_sealevel;temperature;humidity
19259;BME280;9763;48.780;9.212;2023-03-25T00:02:06;97817.84;;;12.83;79.34
19259;BME280;9763;48.780;9.212;2023-03-25T00:05:30;97803.34;;;12.79;78.91
19259;BME280;9763;48.780;9.212;2023-03-25T00:08:54;97795.16;;;12.72;79.10
19259;BME280;9763;48.780;9.212;2023-03-25T00:12:18;97778.44;;;12.63;78.46
19259;BME280;9763;48.780;9.212;2023-03-25T00:15:42;97766.38;;;12.51;78.11
19259;BME280;9763;48.780;9.212;2023-03-25T00:19:08;97774.53;;;12.37;78.79
19259;BME280;9763;48.780;9.212;2023-03-25T00:22:32;97759.72;;;12.26;79.07
19259;BME280;9763;48.780;9.212;2023-03-25T00:25:58;97769.84;;;12.20;78.74
19259;BME280;9763;48.780;9.212;2023-03-25T00:29:22;97790.47;;;12.13;78.76
19259;BME280;9763;48.780;9.212;2023-03-25T00:32:46;97794.25;;;12.09;79.39
19259;BME280;9763;48.780;9.212;2023-03-25T00:36:13;97786.81;;;12.05;79.40
19259;BME280;9763;48.780;9.212;2023-03-25T00:39:39;97790.25;;;12.05;79.29
19259;BME280;9763;48.780;9.212;2023-03-25T00:43:05;97793.00;;;12.04;79.53
19259;BME280;9763;48.780;9.212;2023-03-25T00:46:31;97797.63;;;12.00;79.18
19259;BME280;9763;48.780;9.212;2023-03-25T00:49:55;97790.63;;;12.01;79.00
19259;BME280;9763;48.780;9.212;2023-03-25T00:53:20;97784.78;;;11.97;78.98
19259;BME280;9763;48.780;9.212;2023-03-25T00:56:44;97778.88;;;11.95;79.46
19259;BME280;9763;48.780;9.212;2023-03-25T01:00:10;97773.66;;;11.95;79.00
19259;BME280;9763;48.780;9.212;2023-03-25T01:03:35;97778.28;;;11.92;79.27
19259;BME280;9763;48.780;9.212;2023-03-25T01:06:59;97770.09;;;11.85;79.18
19259;BME280;9763;48.780;9.212;2023-03-25T01:10:26;97760.84;;;11.81;78.93
19259;BME280;9763;48.780;9.212;2023-03-25T01:13:54;97760.13;;;11.79;79.17
19259;BME280;9763;48.780;9.212;2023-03-25T01:17:18;97770.72;;;11.77;78.95
19259;BME280;9763;48.780;9.212;2023-03-25T01:20:44;97768.69;;;11.70;79.22
19259;BME280;9763;48.780;9.212;2023-03-25T01:24:09;97778.56;;;11.66;79.32
19259;BME280;9763;48.780;9.212;2023-03-25T01:27:35;97777.00;;;11.64;79.15
19259;BME280;9763;48.780;9.212;2023-03-25T01:31:00;97764.19;;;11.61;78.94
19259;BME280;9763;48.780;9.212;2023-03-25T01:34:24;97763.63;;;11.57;79.01
19259;BME280;9763;48.780;9.212;2023-03-25T01:37:48;97743.88;;;11.53;79.27
19259;BME280;9763;48.780;9.212;2023-03-25T01:41:15;97761.22;;;11.54;79.51
19259;BME280;9763;48.780;9.212;2023-03-25T01:45:20;97737.47;;;11.57;80.21
19259;BME280;9763;48.780;9.212;2023-03-25T01:48:44;97750.28;;;11.60;80.35
19259;BME280;9763;48.780;9.212;2023-03-25T01:52:14;97747.53;;;11.62;80.14
19259;BME280;9763;48.780;9.212;2023-03-25T01:55:39;97746.03;;;11.59;80.17
19259;BME280;9763;48.780;9.212;2023-03-25T01:59:05;97736.53;;;11.58;79.80
19259;BME280;9763;48.780;9.212;2023-03-25T02:02:30;97733.09;;;11.58;80.01
19259;BME280;9763;48.780;9.212;2023-03-25T02:06:02;97730.00;;;11.52;79.86
19259;BME280;9763;48.780;9.212;2023-03-25T02:09:27;97722.16;;;11.52;80.12
19259;BME280;9763;48.780;9.212;2023-03-25T02:12:51;97712.28;;;11.56;79.85
19259;BME280;9763;48.780;9.212;2023-03-25T02:16:26;97702.44;;;11.48;80.02
19259;BME280;9763;48.780;9.212;2023-03-25T02:20:13;97724.41;;;11.57;79.64
19259;BME280;9763;48.780;9.212;2023-03-25T02:28:10;97728.53;;;11.60;80.20
19259;BME280;9763;48.780;9.212;2023-03-25T02:31:46;97733.41;;;11.64;80.20
19259;BME280;9763;48.780;9.212;2023-03-25T02:35:31;97739.94;;;11.70;80.21
19259;BME280;9763;48.780;9.212;2023-03-25T02:39:02;97744.34;;;11.69;80.57
19259;BME280;9763;48.780;9.212;2023-03-25T02:42:33;97753.84;;;11.70;80.54
19259;BME280;9763;48.780;9.212;2023-03-25T02:46:04;97755.47;;;11.71;80.17
19259;BME280;9763;48.780;9.212;2023-03-25T02:49:32;97758.09;;;11.71;79.73
19259;BME280;9763;48.780;9.212;2023-03-25T02:52:59;97769.75;;;11.67;79.54
19259;BME280;9763;48.780;9.212;2023-03-25T02:56:26;97780.47;;;11.64;79.57
19259;BME280;9763;48.780;9.212;2023-03-25T02:59:56;97780.47;;;11.64;79.57
19259;BME280;9763;48.780;9.212;2023-03-25T03:03:21;97767.63;;;11.61;79.79
19259;BME280;9763;48.780;9.212;2023-03-25T03:06:45;97757.06;;;11.63;80.42
19259;BME280;9763;48.780;9.212;2023-03-25T03:10:14;97755.16;;;11.65;79.99
19259;BME280;9763;48.780;9.212;2023-03-25T03:13:56;97756.31;;;11.72;80.39
19259;BME280;9763;48.780;9.212;2023-03-25T03:17:25;97751.59;;;11.77;80.43
19259;BME280;9763;48.780;9.212;2023-03-25T03:20:58;97739.66;;;11.73;80.73
19259;BME280;9763;48.780;9.212;2023-03-25T03:24:31;97742.91;;;11.76;79.99
19259;BME280;9763;48.780;9.212;2023-03-25T03:28:00;97756.31;;;11.72;79.59
19259;BME280;9763;48.780;9.212;2023-03-25T03:31:35;97755.16;;;11.65;80.29
19259;BME280;9763;48.780;9.212;2023-03-25T03:35:23;97756.34;;;11.61;80.03
19259;BME280;9763;48.780;9.212;2023-03-25T03:38:52;97756.00;;;11.54;79.66
19259;BME280;9763;48.780;9.212;2023-03-25T03:42:21;97755.31;;;11.41;79.33
19259;BME280;9763;48.780;9.212;2023-03-25T03:45:51;97759.72;;;11.29;79.37
19259;BME280;9763;48.780;9.212;2023-03-25T03:49:22;97771.13;;;11.17;78.84
19259;BME280;9763;48.780;9.212;2023-03-25T03:52:52;97787.41;;;11.09;79.26
19259;BME280;9763;48.780;9.212;2023-03-25T03:56:25;97786.91;;;11.04;78.71
19259;BME280;9763;48.780;9.212;2023-03-25T03:59:59;97787.41;;;10.98;78.78
19259;BME280;9763;48.780;9.212;2023-03-25T04:03:36;97795.34;;;10.97;79.70
19259;BME280;9763;48.780;9.212;2023-03-25T04:07:07;97791.19;;;10.94;79.40
19259;BME280;9763;48.780;9.212;2023-03-25T04:10:38;97801.84;;;10.91;79.16
19259;BME280;9763;48.780;9.212;2023-03-25T04:14:04;97799.84;;;10.83;79.22
19259;BME280;9763;48.780;9.212;2023-03-25T04:17:28;97805.28;;;10.80;79.16
19259;BME280;9763;48.780;9.212;2023-03-25T04:20:54;97809.88;;;10.77;79.62
19259;BME280;9763;48.780;9.212;2023-03-25T04:24:19;97808.09;;;10.77;79.85
19259;BME280;9763;48.780;9.212;2023-03-25T04:27:43;97814.38;;;10.75;79.21
19259;BME280;9763;48.780;9.212;2023-03-25T04:31:13;97814.63;;;10.72;80.00
19259;BME280;9763;48.780;9.212;2023-03-25T04:34:37;97798.84;;;10.62;79.89
19259;BME280;9763;48.780;9.212;2023-03-25T04:38:01;97809.41;;;10.72;80.02
19259;BME280;9763;48.780;9.212;2023-03-25T04:41:26;97815.38;;;10.74;79.23
19259;BME280;9763;48.780;9.212;2023-03-25T04:44:50;97810.38;;;10.71;79.08
19259;BME280;9763;48.780;9.212;2023-03-25T04:48:21;97803.69;;;10.56;79.25
19259;BME280;9763;48.780;9.212;2023-03-25T04:51:47;97812.94;;;10.60;79.01
19259;BME280;9763;48.780;9.212;2023-03-25T04:55:13;97812.44;;;10.55;79.51
19259;BME280;9763;48.780;9.212;2023-03-25T04:58:40;97810.19;;;10.50;79.23
19259;BME280;9763;48.780;9.212;2023-03-25T05:02:05;97813.97;;;10.46;79.45
19259;BME280;9763;48.780;9.212;2023-03-25T05:05:34;97815.84;;;10.44;79.64
19259;BME280;9763;48.780;9.212;2023-03-25T05:08:58;97820.25;;;10.43;79.41
19259;BME280;9763;48.780;9.212;2023-03-25T05:12:23;97823.78;;;10.42;79.44
19259;BME280;9763;48.780;9.212;2023-03-25T05:15:48;97829.13;;;10.41;79.33
19259;BME280;9763;48.780;9.212;2023-03-25T05:19:12;97828.06;;;10.43;79.23
19259;BME280;9763;48.780;9.212;2023-03-25T05:22:37;97836.03;;;10.53;79.81
19259;BME280;9763;48.780;9.212;2023-03-25T05:26:01;97842.22;;;10.63;80.38
19259;BME280;9763;48.780;9.212;2023-03-25T05:29:25;97839.78;;;10.73;80.34
19259;BME280;9763;48.780;9.212;2023-03-25T05:32:49;97839.09;;;10.82;80.77
19259;BME280;9763;48.780;9.212;2023-03-25T05:36:18;97844.34;;;10.93;80.82
19259;BME280;9763;48.780;9.212;2023-03-25T05:39:41;97854.19;;;11.01;80.34
19259;BME280;9763;48.780;9.212;2023-03-25T05:43:07;97845.91;;;11.07;80.06
19259;BME280;9763;48.780;9.212;2023-03-25T05:46:31;97833.81;;;11.17;80.30
19259;BME280;9763;48.780;9.212;2023-03-25T05:49:56;97840.09;;;11.26;80.50
19259;BME280;9763;48.780;9.212;2023-03-25T05:53:21;97834.19;;;11.35;80.82
19259;BME280;9763;48.780;9.212;2023-03-25T05:56:45;97832.88;;;11.40;80.15
19259;BME280;9763;48.780;9.212;2023-03-25T06:00:11;97839.41;;;11.46;80.23
19259;BME280;9763;48.780;9.212;2023-03-25T06:03:35;97837.47;;;11.48;80.29
19259;BME280;9763;48.780;9.212;2023-03-25T06:07:01;97849.50;;;11.50;80.52
19259;BME280;9763;48.780;9.212;2023-03-25T06:10:25;97854.81;;;11.60;80.84
19259;BME280;9763;48.780;9.212;2023-03-25T06:13:49;97852.19;;;11.71;80.95
19259;BME280;9763;48.780;9.212;2023-03-25T06:17:13;97861.03;;;11.81;80.07
19259;BME280;9763;48.780;9.212;2023-03-25T06:20:36;97871.94;;;11.86;79.92
19259;BME280;9763;48.780;9.212;2023-03-25T06:24:01;97876.59;;;11.94;79.79
19259;BME280;9763;48.780;9.212;2023-03-25T06:27:25;97863.38;;;11.96;79.63
19259;BME280;9763;48.780;9.212;2023-03-25T06:30:49;97859.44;;;12.01;79.81
19259;BME280;9763;48.780;9.212;2023-03-25T06:34:14;97868.22;;;12.11;79.91
19259;BME280;9763;48.780;9.212;2023-03-25T06:37:38;97867.47;;;12.20;79.87
19259;BME280;9763;48.780;9.212;2023-03-25T06:41:09;97859.63;;;12.20;80.03
19259;BME280;9763;48.780;9.212;2023-03-25T06:44:33;97864.97;;;12.62;82.02
19259;BME280;9763;48.780;9.212;2023-03-25T06:48:26;97866.59;;;13.77;86.51
19259;BME280;9763;48.780;9.212;2023-03-25T06:51:50;97865.69;;;14.85;86.71
19259;BME280;9763;48.780;9.212;2023-03-25T06:55:14;97875.16;;;15.25;81.99
19259;BME280;9763;48.780;9.212;2023-03-25T06:58:39;97870.16;;;15.31;80.60
19259;BME280;9763;48.780;9.212;2023-03-25T07:02:03;97867.13;;;15.73;81.21
19259;BME280;9763;48.780;9.212;2023-03-25T07:05:27;97866.66;;;15.87;78.30
19259;BME280;9763;48.780;9.212;2023-03-25T07:08:51;97867.38;;;16.07;77.75
19259;BME280;9763;48.780;9.212;2023-03-25T07:12:15;97877.25;;;16.05;75.60
19259;BME280;9763;48.780;9.212;2023-03-25T07:15:41;97885.25;;;15.76;74.57
19259;BME280;9763;48.780;9.212;2023-03-25T07:19:05;97885.19;;;15.48;74.27
19259;BME280;9763;48.780;9.212;2023-03-25T07:22:29;97883.19;;;15.23;74.37
19259;BME280;9763;48.780;9.212;2023-03-25T07:25:53;97883.94;;;14.96;73.73
19259;BME280;9763;48.780;9.212;2023-03-25T07:29:18;97878.09;;;14.73;74.35
19259;BME280;9763;48.780;9.212;2023-03-25T07:32:45;97876.34;;;14.84;75.07
19259;BME280;9763;48.780;9.212;2023-03-25T07:36:11;97883.63;;;15.09;75.55
19259;BME280;9763;48.780;9.212;2023-03-25T07:39:35;97884.44;;;15.19;74.90
19259;BME280;9763;48.780;9.212;2023-03-25T07:43:00;97873.41;;;15.53;75.78
19259;BME280;9763;48.780;9.212;2023-03-25T07:46:37;97870.56;;;16.73;77.74
19259;BME280;9763;48.780;9.212;2023-03-25T07:50:03;97867.31;;;18.25;78.61
19259;BME280;9763;48.780;9.212;2023-03-25T07:53:27;97866.22;;;19.57;75.09
19259;BME280;9763;48.780;9.212;2023-03-25T07:56:51;97852.72;;;20.22;74.00
19259;BME280;9763;48.780;9.212;2023-03-25T08:00:17;97854.03;;;21.17;71.77
19259;BME280;9763;48.780;9.212;2023-03-25T08:03:41;97854.38;;;21.52;68.88
19259;BME280;9763;48.780;9.212;2023-03-25T08:07:06;97847.63;;;21.12;67.45
19259;BME280;9763;48.780;9.212;2023-03-25T08:10:31;97850.84;;;20.39;66.00
19259;BME280;9763;48.780;9.212;2023-03-25T08:13:56;97844.75;;;19.52;66.00
19259;BME280;9763;48.780;9.212;2023-03-25T08:17:20;97851.91;;;19.03;67.97
19259;BME280;9763;48.780;9.212;2023-03-25T08:20:44;97855.19;;;18.97;68.97
19259;BME280;9763;48.780;9.212;2023-03-25T08:24:09;97852.84;;;19.98;70.09
19259;BME280;9763;48.780;9.212;2023-03-25T08:27:33;97851.44;;;20.49;67.96
19259;BME280;9763;48.780;9.212;2023-03-25T08:30:57;97860.50;;;20.55;67.49
19259;BME280;9763;48.780;9.212;2023-03-25T08:34:24;97850.84;;;20.39;66.67
19259;BME280;9763;48.780;9.212;2023-03-25T08:37:51;97853.50;;;20.00;66.48
19259;BME280;9763;48.780;9.212;2023-03-25T08:41:16;97855.78;;;19.48;65.59
19259;BME280;9763;48.780;9.212;2023-03-25T08:44:40;97857.31;;;18.53;65.25
19259;BME280;9763;48.780;9.212;2023-03-25T08:48:04;97865.97;;;17.45;65.88
19259;BME280;9763;48.780;9.212;2023-03-25T08:51:28;97870.59;;;16.46;67.07
19259;BME280;9763;48.780;9.212;2023-03-25T08:54:52;97873.50;;;15.80;70.12
19259;BME280;9763;48.780;9.212;2023-03-25T08:58:17;97879.97;;;15.39;70.40
19259;BME280;9763;48.780;9.212;2023-03-25T09:01:42;97885.44;;;14.80;70.90
19259;BME280;9763;48.780;9.212;2023-03-25T09:05:07;97885.13;;;14.34;72.27
19259;BME280;9763;48.780;9.212;2023-03-25T09:08:32;97884.22;;;14.05;73.48
19259;BME280;9763;48.780;9.212;2023-03-25T09:11:56;97883.34;;;13.85;74.16
19259;BME280;9763;48.780;9.212;2023-03-25T09:15:22;97872.28;;;13.82;75.61
19259;BME280;9763;48.780;9.212;2023-03-25T09:18:45;97871.44;;;13.81;76.23
19259;BME280;9763;48.780;9.212;2023-03-25T09:22:09;97868.59;;;14.72;81.87
19259;BME280;9763;48.780;9.212;2023-03-25T09:25:33;97854.81;;;16.01;85.17
19259;BME280;9763;48.780;9.212;2023-03-25T09:28:57;97851.72;;;16.68;84.03
19259;BME280;9763;48.780;9.212;2023-03-25T09:32:24;97856.78;;;17.05;80.90
19259;BME280;9763;48.780;9.212;2023-03-25T09:35:48;97848.97;;;17.13;80.86
19259;BME280;9763;48.780;9.212;2023-03-25T09:39:12;97857.47;;;17.33;79.90
19259;BME280;9763;48.780;9.212;2023-03-25T09:42:56;97827.66;;;17.41;80.24
19259;BME280;9763;48.780;9.212;2023-03-25T09:46:22;97826.53;;;17.43;79.77
19259;BME280;9763;48.780;9.212;2023-03-25T09:49:48;97843.28;;;17.86;80.87
19259;BME280;9763;48.780;9.212;2023-03-25T09:53:26;97833.91;;;18.82;84.17
19259;BME280;9763;48.780;9.212;2023-03-25T09:56:53;97823.41;;;19.54;81.04
19259;BME280;9763;48.780;9.212;2023-03-25T10:00:21;97824.22;;;19.54;77.37
19259;BME280;9763;48.780;9.212;2023-03-25T10:03:58;97833.88;;;19.06;77.05
19259;BME280;9763;48.780;9.212;2023-03-25T10:07:37;97831.56;;;18.63;76.46
19259;BME280;9763;48.780;9.212;2023-03-25T10:11:09;97833.91;;;18.82;77.94
19259;BME280;9763;48.780;9.212;2023-03-25T10:14:40;97842.81;;;18.73;77.08
19259;BME280;9763;48.780;9.212;2023-03-25T10:18:26;97827.09;;;18.63;77.40
19259;BME280;9763;48.780;9.212;2023-03-25T10:22:02;97825.88;;;19.39;79.25
19259;BME280;9763;48.780;9.212;2023-03-25T10:25:32;97813.59;;;20.55;77.42
19259;BME280;9763;48.780;9.212;2023-03-25T10:29:03;97806.66;;;22.03;70.78
19259;BME280;9763;48.780;9.212;2023-03-25T10:32:36;97799.97;;;22.49;67.79
19259;BME280;9763;48.780;9.212;2023-03-25T10:36:03;97794.25;;;23.92;66.29
19259;BME280;9763;48.780;9.212;2023-03-25T10:39:31;97786.47;;;25.17;63.04
19259;BME280;9763;48.780;9.212;2023-03-25T10:43:10;97790.97;;;25.43;60.58
19259;BME280;9763;48.780;9.212;2023-03-25T10:46:39;97798.63;;;24.93;58.33
19259;BME280;9763;48.780;9.212;2023-03-25T10:50:13;97783.16;;;24.42;59.55
19259;BME280;9763;48.780;9.212;2023-03-25T10:53:39;97779.94;;;24.06;58.02
19259;BME280;9763;48.780;9.212;2023-03-25T10:57:06;97787.81;;;23.39;58.20
19259;BME280;9763;48.780;9.212;2023-03-25T11:00:32;97787.78;;;22.34;58.23
19259;BME280;9763;48.780;9.212;2023-03-25T11:03:58;97748.69;;;21.98;60.07
19259;BME280;9763;48.780;9.212;2023-03-25T11:07:27;97789.47;;;22.41;58.68
19259;BME280;9763;48.780;9.212;2023-03-25T11:10:54;97779.78;;;22.55;59.04
19259;BME280;9763;48.780;9.212;2023-03-25T11:14:25;97786.25;;;22.46;58.98
19259;BME280;9763;48.780;9.212;2023-03-25T11:17:58;97784.38;;;21.74;58.08
19259;BME280;9763;48.780;9.212;2023-03-25T11:21:22;97787.50;;;22.71;60.28
19259;BME280;9763;48.780;9.212;2023-03-25T11:24:49;97779.72;;;23.94;59.13
19259;BME280;9763;48.780;9.212;2023-03-25T11:28:18;97775.19;;;24.82;56.94
19259;BME280;9763;48.780;9.212;2023-03-25T11:31:55;97768.13;;;25.54;56.45
19259;BME280;9763;48.780;9.212;2023-03-25T11:35:26;97752.88;;;26.12;55.45
19259;BME280;9763;48.780;9.212;2023-03-25T11:38:57;97755.81;;;25.97;54.83
19259;BME280;9763;48.780;9.212;2023-03-25T11:42:32;97743.97;;;26.56;54.32
19259;BME280;9763;48.780;9.212;2023-03-25T11:46:07;97746.88;;;26.79;50.48
19259;BME280;9763;48.780;9.212;2023-03-25T11:49:34;97750.88;;;26.01;51.66
19259;BME280;9763;48.780;9.212;2023-03-25T11:53:02;97739.22;;;24.78;52.77
19259;BME280;9763;48.780;9.212;2023-03-25T11:56:31;97738.84;;;23.74;53.36
19259;BME280;9763;48.780;9.212;2023-03-25T12:00:02;97746.84;;;23.40;54.56
19259;BME280;9763;48.780;9.212;2023-03-25T12:03:34;97753.41;;;23.44;55.85
19259;BME280;9763;48.780;9.212;2023-03-25T12:07:00;97760.00;;;22.85;54.60
19259;BME280;9763;48.780;9.212;2023-03-25T12:10:34;97763.69;;;22.84;54.76
19259;BME280;9763;48.780;9.212;2023-03-25T12:14:16;97759.34;;;23.05;56.40
19259;BME280;9763;48.780;9.212;2023-03-25T12:17:53;97757.34;;;23.48;56.29
19259;BME280;9763;48.780;9.212;2023-03-25T12:21:29;97770.03;;;23.11;54.87
19259;BME280;9763;48.780;9.212;2023-03-25T12:25:08;97770.19;;;23.03;55.70
19259;BME280;9763;48.780;9.212;2023-03-25T12:32:32;97774.06;;;23.35;56.08
19259;BME280;9763;48.780;9.212;2023-03-25T12:36:14;97768.38;;;23.45;51.30
19259;BME280;9763;48.780;9.212;2023-03-25T12:39:56;97795.19;;;22.81;53.09
19259;BME280;9763;48.780;9.212;2023-03-25T12:43:31;97791.50;;;22.18;53.95
19259;BME280;9763;48.780;9.212;2023-03-25T12:47:22;97795.66;;;21.62;51.44
19259;BME280;9763;48.780;9.212;2023-03-25T12:50:53;97810.66;;;20.73;52.87
19259;BME280;9763;48.780;9.212;2023-03-25T12:54:31;97792.75;;;19.59;53.24
19259;BME280;9763;48.780;9.212;2023-03-25T12:58:15;97824.47;;;19.04;55.24
19259;BME280;9763;48.780;9.212;2023-03-25T13:01:53;97810.84;;;19.87;53.68
19259;BME280;9763;48.780;9.212;2023-03-25T13:05:26;97825.91;;;20.71;51.67
19259;BME280;9763;48.780;9.212;2023-03-25T13:08:57;97810.63;;;21.33;49.23
19259;BME280;9763;48.780;9.212;2023-03-25T13:12:30;97808.31;;;21.74;49.46
19259;BME280;9763;48.780;9.212;2023-03-25T13:16:01;97804.00;;;22.03;49.49
19259;BME280;9763;48.780;9.212;2023-03-25T13:19:29;97816.66;;;21.56;49.37
19259;BME280;9763;48.780;9.212;2023-03-25T13:22:59;97801.28;;;20.85;50.01
19259;BME280;9763;48.780;9.212;2023-03-25T13:26:28;97807.09;;;20.35;50.71
19259;BME280;9763;48.780;9.212;2023-03-25T13:29:56;97811.78;;;19.63;52.39
19259;BME280;9763;48.780;9.212;2023-03-25T13:33:24;97790.06;;;19.12;53.89
19259;BME280;9763;48.780;9.212;2023-03-25T13:36:57;97796.72;;;18.76;54.25
19259;BME280;9763;48.780;9.212;2023-03-25T13:40:27;97800.66;;;18.47;56.01
19259;BME280;9763;48.780;9.212;2023-03-25T13:44:01;97793.03;;;18.28;56.32
19259;BME280;9763;48.780;9.212;2023-03-25T13:47:30;97811.00;;;18.16;56.30
19259;BME280;9763;48.780;9.212;2023-03-25T13:51:00;97799.41;;;18.01;58.05
19259;BME280;9763;48.780;9.212;2023-03-25T13:54:29;97795.75;;;17.86;57.92
19259;BME280;9763;48.780;9.212;2023-03-25T13:58:29;97806.41;;;17.68;58.14
19259;BME280;9763;48.780;9.212;2023-03-25T14:02:18;97808.47;;;17.56;58.37
19259;BME280;9763;48.780;9.212;2023-03-25T14:06:16;97802.13;;;17.41;57.07
19259;BME280;9763;48.780;9.212;2023-03-25T14:10:23;97813.25;;;17.27;57.09
19259;BME280;9763;48.780;9.212;2023-03-25T14:13:55;97819.28;;;17.11;57.10
19259;BME280;9763;48.780;9.212;2023-03-25T14:17:23;97833.16;;;16.96;57.30
19259;BME280;9763;48.780;9.212;2023-03-25T14:20:49;97864.59;;;16.71;56.35
19259;BME280;9763;48.780;9.212;2023-03-25T14:24:25;97836.06;;;16.49;56.38
19259;BME280;9763;48.780;9.212;2023-03-25T14:27:50;97838.22;;;16.36;56.47
19259;BME280;9763;48.780;9.212;2023-03-25T14:31:30;97810.44;;;16.24;56.80
19259;BME280;9763;48.780;9.212;2023-03-25T14:34:54;97818.03;;;16.09;56.77
19259;BME280;9763;48.780;9.212;2023-03-25T14:38:53;97816.44;;;15.98;57.34
19259;BME280;9763;48.780;9.212;2023-03-25T14:42:26;97817.41;;;15.97;57.81
19259;BME280;9763;48.780;9.212;2023-03-25T14:45:57;97811.88;;;16.00;58.65
19259;BME280;9763;48.780;9.212;2023-03-25T14:49:47;97808.78;;;16.05;59.46
19259;BME280;9763;48.780;9.212;2023-03-25T14:53:15;97797.81;;;16.09;59.55
19259;BME280;9763;48.780;9.212;2023-03-25T14:56:45;97790.72;;;16.10;59.62
19259;BME280;9763;48.780;9.212;2023-03-25T15:00:21;97795.16;;;16.09;59.58
19259;BME280;9763;48.780;9.212;2023-03-25T15:04:13;97788.09;;;16.10;59.48
19259;BME280;9763;48.780;9.212;2023-03-25T15:07:44;97785.31;;;16.11;60.44
19259;BME280;9763;48.780;9.212;2023-03-25T15:11:11;97785.03;;;16.14;59.81
19259;BME280;9763;48.780;9.212;2023-03-25T15:14:41;97787.50;;;16.16;59.22
19259;BME280;9763;48.780;9.212;2023-03-25T15:18:09;97777.81;;;16.16;58.21
19259;BME280;9763;48.780;9.212;2023-03-25T15:22:21;97776.00;;;16.17;57.60
19259;BME280;9763;48.780;9.212;2023-03-25T15:25:50;97774.34;;;16.16;57.45
19259;BME280;9763;48.780;9.212;2023-03-25T15:29:38;97776.66;;;16.19;57.29
19259;BME280;9763;48.780;9.212;2023-03-25T15:33:16;97768.16;;;16.25;58.12
19259;BME280;9763;48.780;9.212;2023-03-25T15:36:51;97767.63;;;16.21;57.56
19259;BME280;9763;48.780;9.212;2023-03-25T15:40:29;97768.84;;;16.27;57.78
19259;BME280;9763;48.780;9.212;2023-03-25T15:52:21;97778.53;;;16.09;56.45
19259;BME280;9763;48.780;9.212;2023-03-25T15:55:52;97784.41;;;16.03;57.19
19259;BME280;9763;48.780;9.212;2023-03-25T15:59:31;97784.03;;;15.98;57.05
19259;BME280;9763;48.780;9.212;2023-03-25T16:03:05;97779.06;;;15.95;56.44
19259;BME280;9763;48.780;9.212;2023-03-25T16:06:31;97779.06;;;15.95;55.69
19259;BME280;9763;48.780;9.212;2023-03-25T16:10:04;97786.44;;;15.91;55.00
19259;BME280;9763;48.780;9.212;2023-03-25T16:13:31;97795.59;;;15.87;55.23
19259;BME280;9763;48.780;9.212;2023-03-25T16:16:58;97788.00;;;15.84;56.17
19259;BME280;9763;48.780;9.212;2023-03-25T16:20:25;97792.41;;;15.83;55.42
19259;BME280;9763;48.780;9.212;2023-03-25T16:23:52;97790.94;;;15.81;55.56
19259;BME280;9763;48.780;9.212;2023-03-25T16:27:24;97798.00;;;15.80;55.89
19259;BME280;9763;48.780;9.212;2023-03-25T16:30:50;97790.53;;;15.76;56.80
19259;BME280;9763;48.780;9.212;2023-03-25T16:34:17;97803.00;;;15.74;55.51
19259;BME280;9763;48.780;9.212;2023-03-25T16:37:41;97786.16;;;15.67;55.90
19259;BME280;9763;48.780;9.212;2023-03-25T16:41:09;97794.63;;;15.61;56.29
19259;BME280;9763;48.780;9.212;2023-03-25T16:44:34;97798.53;;;15.57;56.60
19259;BME280;9763;48.780;9.212;2023-03-25T16:48:03;97798.78;;;15.54;55.54
19259;BME280;9763;48.780;9.212;2023-03-25T16:51:32;97792.16;;;15.49;55.86
19259;BME280;9763;48.780;9.212;2023-03-25T16:55:30;97791.63;;;15.46;55.87
19259;BME280;9763;48.780;9.212;2023-03-25T16:58:59;97785.16;;;15.40;56.10
19259;BME280;9763;48.780;9.212;2023-03-25T17:02:26;97786.25;;;15.38;56.60
19259;BME280;9763;48.780;9.212;2023-03-25T17:05:54;97794.97;;;15.38;56.67
19259;BME280;9763;48.780;9.212;2023-03-25T17:09:23;97812.84;;;15.35;56.88
19259;BME280;9763;48.780;9.212;2023-03-25T17:12:55;97806.91;;;15.33;57.68
19259;BME280;9763;48.780;9.212;2023-03-25T17:16:21;97805.41;;;15.30;57.10
19259;BME280;9763;48.780;9.212;2023-03-25T17:19:46;97808.59;;;15.24;57.46
19259;BME280;9763;48.780;9.212;2023-03-25T17:23:20;97809.69;;;15.22;57.79
19259;BME280;9763;48.780;9.212;2023-03-25T17:26:57;97821.50;;;15.18;58.44
19259;BME280;9763;48.780;9.212;2023-03-25T17:30:39;97824.41;;;15.14;58.73
19259;BME280;9763;48.780;9.212;2023-03-25T17:34:06;97823.31;;;15.07;58.59
19259;BME280;9763;48.780;9.212;2023-03-25T17:37:31;97827.47;;;15.00;58.68
19259;BME280;9763;48.780;9.212;2023-03-25T17:41:04;97834.13;;;14.95;58.76
19259;BME280;9763;48.780;9.212;2023-03-25T17:44:34;97830.69;;;14.85;59.46
19259;BME280;9763;48.780;9.212;2023-03-25T17:47:58;97843.00;;;14.84;59.91
19259;BME280;9763;48.780;9.212;2023-03-25T17:51:24;97848.41;;;14.83;59.95
19259;BME280;9763;48.780;9.212;2023-03-25T17:54:48;97843.28;;;14.81;60.02
19259;BME280;9763;48.780;9.212;2023-03-25T17:58:13;97847.16;;;14.77;60.10
19259;BME280;9763;48.780;9.212;2023-03-25T18:01:38;97851.03;;;14.73;59.97
19259;BME280;9763;48.780;9.212;2023-03-25T18:05:02;97857.25;;;14.72;59.61
19259;BME280;9763;48.780;9.212;2023-03-25T18:08:28;97872.47;;;14.68;59.70
19259;BME280;9763;48.780;9.212;2023-03-25T18:11:53;97876.06;;;14.67;59.98
19259;BME280;9763;48.780;9.212;2023-03-25T18:15:18;97880.75;;;14.73;60.22
19259;BME280;9763;48.780;9.212;2023-03-25T18:18:43;97895.97;;;14.80;60.25
19259;BME280;9763;48.780;9.212;2023-03-25T18:22:08;97898.47;;;14.81;60.42
19259;BME280;9763;48.780;9.212;2023-03-25T18:25:42;97891.66;;;14.78;60.49
19259;BME280;9763;48.780;9.212;2023-03-25T18:29:10;97888.09;;;14.70;60.28
19259;BME280;9763;48.780;9.212;2023-03-25T18:32:35;97888.91;;;14.61;59.64
19259;BME280;9763;48.780;9.212;2023-03-25T18:36:00;97882.69;;;14.52;59.74
19259;BME280;9763;48.780;9.212;2023-03-25T18:39:26;97883.38;;;14.45;59.83
19259;BME280;9763;48.780;9.212;2023-03-25T18:42:50;97895.19;;;14.39;59.92
19259;BME280;9763;48.780;9.212;2023-03-25T18:46:15;97893.13;;;14.33;60.01
19259;BME280;9763;48.780;9.212;2023-03-25T18:49:39;97904.88;;;14.29;60.31
19259;BME280;9763;48.780;9.212;2023-03-25T18:53:05;97903.56;;;14.14;60.29
19259;BME280;9763;48.780;9.212;2023-03-25T18:56:28;97920.72;;;14.18;60.88
19259;BME280;9763;48.780;9.212;2023-03-25T18:59:51;97917.69;;;14.13;60.89